Terminal Aerodrome Forecast
Issued by NWS Mt. Holly, NJ

Home | Current Version | Previous Version | Text Only | Print | Product List | Glossary On
Versions: 1 2 3 4 5 6 7 8 9 10 11 12 13 14 15 16 17 18 19 20 21 22 23 24
000
FTUS41 KPHI 062345
TAFTTN
TAF
KTTN 062345Z 0700/0724 25003KT P6SM SCT250
     FM071500 26009KT P6SM SCT150
     FM071900 24010G18KT P6SM BKN120
     FM072300 23006KT P6SM BKN060 OVC120=

USA.gov is the U.S. government's official web portal to all federal, state and local government web resources and services.